createdAt,value
2022-08-26T00:02:00.761Z,3.20
2022-08-26T00:07:00.766Z,3.40
2022-08-26T00:11:59.646Z,3.10
2022-08-26T00:16:58.980Z,3.90
2022-08-26T00:22:00.282Z,2.80
2022-08-26T00:27:00.526Z,3.80
2022-08-26T00:31:59.835Z,3.30
2022-08-26T00:36:59.249Z,3.00
2022-08-26T00:42:00.852Z,3.40
2022-08-26T00:47:09.463Z,4.40
2022-08-26T00:52:13.377Z,3.60
2022-08-26T00:57:19.896Z,3.60
2022-08-26T01:02:20.704Z,4.70
2022-08-26T01:07:21.638Z,3.70
2022-08-26T01:12:21.970Z,5.80
2022-08-26T01:17:22.245Z,3.80
2022-08-26T01:22:28.663Z,3.40
2022-08-26T01:27:32.628Z,3.40
2022-08-26T01:32:36.450Z,3.80
2022-08-26T01:37:42.261Z,3.20
2022-08-26T01:42:44.195Z,3.50
2022-08-26T01:47:44.337Z,3.50
2022-08-26T01:52:54.391Z,3.60
2022-08-26T01:57:59.415Z,3.60
2022-08-26T02:03:15.775Z,3.30
2022-08-26T02:08:19.029Z,3.30
2022-08-26T02:13:25.557Z,3.40
2022-08-26T02:18:25.449Z,3.60
2022-08-26T02:23:25.965Z,3.30
2022-08-26T02:28:26.803Z,3.30
2022-08-26T02:33:26.223Z,3.50
2022-08-26T02:38:27.779Z,3.50
2022-08-26T02:43:31.772Z,3.50
2022-08-26T02:48:33.362Z,3.50
2022-08-26T02:53:35.644Z,3.40
2022-08-26T02:58:37.902Z,4.00
2022-08-26T03:03:37.589Z,3.70
2022-08-26T03:08:38.361Z,3.90
2022-08-26T03:13:37.362Z,3.70
2022-08-26T03:18:37.214Z,3.70
2022-08-26T03:23:38.562Z,4.00
2022-08-26T03:28:58.301Z,4.40
2022-08-26T03:33:59.306Z,3.60
2022-08-26T03:38:58.831Z,3.30
2022-08-26T03:44:01.531Z,3.90
2022-08-26T03:49:02.352Z,3.80
2022-08-26T03:54:04.989Z,4.10
2022-08-26T03:59:08.269Z,4.20
2022-08-26T04:04:07.424Z,4.10
2022-08-26T04:09:11.632Z,4.40
2022-08-26T04:14:17.594Z,5.00
2022-08-26T04:19:20.714Z,5.10
2022-08-26T04:24:22.219Z,4.00
2022-08-26T04:29:25.843Z,5.10
2022-08-26T04:34:28.393Z,4.20
2022-08-26T04:39:29.495Z,4.50
2022-08-26T04:44:31.783Z,4.20
2022-08-26T04:49:35.485Z,4.30
2022-08-26T04:54:35.235Z,4.40
2022-08-26T04:59:38.975Z,4.20
2022-08-26T05:04:39.458Z,4.20
2022-08-26T05:09:40.357Z,4.50
2022-08-26T05:14:41.589Z,4.30
2022-08-26T05:19:43.087Z,3.80
2022-08-26T05:24:43.400Z,4.70
2022-08-26T05:29:44.397Z,4.30
2022-08-26T05:34:44.139Z,4.80
2022-08-26T05:39:51.111Z,4.30
2022-08-26T05:44:56.209Z,4.00
2022-08-26T05:49:56.321Z,4.20
2022-08-26T05:54:55.358Z,4.90
2022-08-26T06:00:01.633Z,3.90
2022-08-26T06:05:02.846Z,4.00
2022-08-26T06:10:30.555Z,4.00
2022-08-26T06:15:22.063Z,3.80
2022-08-26T06:20:23.821Z,4.70
2022-08-26T06:25:40.972Z,3.60
2022-08-26T06:30:43.395Z,4.10
2022-08-26T06:35:46.246Z,3.80
2022-08-26T06:40:49.736Z,4.00
2022-08-26T06:45:50.075Z,4.00
2022-08-26T06:50:50.647Z,4.00
2022-08-26T06:55:51.796Z,4.40
2022-08-26T07:00:53.116Z,4.80
2022-08-26T07:05:53.520Z,4.30
2022-08-26T07:10:52.347Z,4.70
2022-08-26T07:15:57.379Z,3.90
2022-08-26T07:20:57.028Z,3.80
2022-08-26T07:25:55.908Z,4.40
2022-08-26T07:30:56.308Z,4.10
2022-08-26T07:35:57.307Z,4.20
2022-08-26T07:40:56.359Z,4.30
2022-08-26T07:45:56.000Z,4.50
2022-08-26T07:50:55.467Z,4.80
2022-08-26T07:55:59.147Z,4.70
2022-08-26T08:00:59.451Z,5.80
2022-08-26T08:05:59.887Z,4.60
2022-08-26T08:10:59.634Z,4.50
2022-08-26T08:15:58.601Z,4.70
2022-08-26T08:21:10.827Z,4.30
2022-08-26T08:26:17.195Z,4.60
2022-08-26T08:31:52.415Z,4.50
2022-08-26T08:36:46.491Z,4.20
2022-08-26T08:42:13.236Z,4.30
2022-08-26T08:47:26.877Z,4.10
2022-08-26T08:52:36.024Z,4.10
2022-08-26T08:57:55.524Z,4.60
2022-08-26T09:03:07.391Z,4.70
2022-08-26T09:08:16.564Z,4.00
2022-08-26T09:13:26.048Z,4.30
2022-08-26T09:18:46.185Z,4.10
2022-08-26T09:23:49.727Z,4.10
2022-08-26T09:28:56.736Z,4.10
2022-08-26T09:34:17.535Z,4.30
2022-08-26T09:39:37.727Z,4.50
2022-08-26T09:44:52.603Z,4.50
2022-08-26T09:50:09.683Z,4.10
2022-08-26T09:55:26.946Z,4.00
2022-08-26T10:00:38.420Z,3.90
2022-08-26T10:05:47.749Z,4.20
2022-08-26T10:10:48.921Z,4.30
2022-08-26T10:16:05.551Z,4.00
2022-08-26T10:21:13.958Z,4.60
2022-08-26T10:26:20.836Z,4.80
2022-08-26T10:31:40.160Z,4.30
2022-08-26T10:37:14.845Z,4.60
2022-08-26T10:42:33.394Z,4.40
2022-08-26T10:47:44.472Z,4.70
2022-08-26T10:53:01.299Z,5.30
2022-08-26T10:58:14.334Z,4.80
2022-08-26T11:03:40.902Z,5.50
2022-08-26T11:08:48.934Z,5.40
2022-08-26T11:14:12.426Z,5.30
2022-08-26T11:19:14.514Z,5.40
2022-08-26T11:24:48.369Z,5.10
2022-08-26T11:30:07.919Z,5.50
2022-08-26T11:35:10.116Z,5.60
2022-08-26T11:40:15.819Z,5.50
2022-08-26T11:45:28.435Z,5.20
2022-08-26T11:50:31.330Z,5.70
2022-08-26T11:55:30.365Z,5.50
2022-08-26T12:00:36.197Z,6.20
2022-08-26T12:05:43.724Z,6.00
2022-08-26T12:10:43.532Z,6.10
2022-08-26T12:15:42.150Z,5.90
2022-08-26T12:20:54.036Z,6.40
2022-08-26T12:26:03.279Z,6.80
2022-08-26T12:31:09.838Z,6.60
2022-08-26T12:36:10.593Z,7.80
2022-08-26T12:41:11.132Z,7.90
2022-08-26T12:46:14.975Z,8.20
2022-08-26T12:51:26.180Z,8.10
2022-08-26T12:56:32.723Z,7.60
2022-08-26T13:01:39.931Z,8.00
2022-08-26T13:06:41.044Z,7.60
2022-08-26T13:12:04.101Z,9.10
2022-08-26T13:17:03.272Z,8.30
2022-08-26T13:22:05.307Z,9.30
2022-08-26T13:27:06.042Z,9.30
2022-08-26T13:32:09.290Z,9.00
2022-08-26T13:37:09.414Z,10.00
2022-08-26T13:42:08.661Z,10.20
2022-08-26T13:47:09.896Z,11.00
2022-08-26T13:52:08.922Z,9.60
2022-08-26T13:57:09.431Z,8.60
2022-08-26T14:02:10.638Z,10.70
2022-08-26T14:07:09.352Z,10.10
2022-08-26T14:12:09.578Z,10.40
2022-08-26T14:17:09.794Z,9.20
2022-08-26T14:22:09.141Z,10.20
2022-08-26T14:27:08.621Z,10.20
2022-08-26T14:32:15.475Z,10.10
2022-08-26T14:37:15.537Z,9.30
2022-08-26T14:42:17.539Z,8.80
2022-08-26T14:47:17.235Z,8.60
2022-08-26T14:52:16.532Z,9.00
2022-08-26T14:57:17.813Z,8.70
2022-08-26T15:02:32.595Z,8.60
2022-08-26T15:07:32.774Z,8.20
2022-08-26T15:12:32.609Z,8.20
2022-08-26T15:17:32.003Z,7.80
2022-08-26T15:22:31.549Z,7.60
2022-08-26T15:27:31.361Z,7.90
2022-08-26T15:32:32.374Z,7.60
2022-08-26T15:37:33.191Z,7.30
2022-08-26T15:42:32.476Z,7.30
2022-08-26T15:47:32.606Z,7.40
2022-08-26T15:52:51.249Z,7.10
2022-08-26T15:57:49.592Z,7.70
2022-08-26T16:02:48.980Z,8.20
2022-08-26T16:07:47.451Z,6.70
2022-08-26T16:12:46.949Z,6.50
2022-08-26T16:17:47.055Z,7.00
2022-08-26T16:22:46.494Z,6.80
2022-08-26T16:27:45.801Z,6.30
2022-08-26T16:32:46.637Z,6.40
2022-08-26T16:37:47.582Z,6.10
2022-08-26T16:42:47.207Z,7.00
2022-08-26T16:47:47.717Z,6.30
2022-08-26T16:52:47.211Z,6.60
2022-08-26T16:57:51.708Z,6.50
2022-08-26T17:02:52.069Z,6.80
2022-08-26T17:07:51.930Z,6.40
2022-08-26T17:12:50.899Z,6.90
2022-08-26T17:17:49.336Z,6.30
2022-08-26T17:22:52.577Z,6.50
2022-08-26T17:27:51.449Z,5.80
2022-08-26T17:32:51.204Z,5.70
2022-08-26T17:37:50.856Z,6.10
2022-08-26T17:42:51.341Z,5.40
2022-08-26T17:47:50.598Z,5.20
2022-08-26T17:52:49.830Z,5.90
2022-08-26T17:57:53.424Z,6.00
2022-08-26T18:02:53.093Z,5.50
2022-08-26T18:07:52.480Z,5.20
2022-08-26T18:12:51.607Z,5.20
2022-08-26T18:17:50.299Z,5.50
2022-08-26T18:22:50.953Z,5.40
2022-08-26T18:27:49.790Z,5.70
2022-08-26T18:32:49.369Z,5.20
2022-08-26T18:37:49.335Z,5.00
2022-08-26T18:42:49.284Z,5.40
2022-08-26T18:47:53.881Z,5.40
2022-08-26T18:52:54.315Z,5.40
2022-08-26T18:57:52.927Z,5.10
2022-08-26T19:02:52.432Z,5.50
2022-08-26T19:07:56.777Z,5.00
2022-08-26T19:13:00.097Z,5.30
2022-08-26T19:18:00.438Z,5.50
2022-08-26T19:23:02.663Z,5.60
2022-08-26T19:28:09.505Z,6.30
2022-08-26T19:33:09.950Z,6.10
2022-08-26T19:38:10.686Z,6.10
2022-08-26T19:43:10.273Z,6.00
2022-08-26T19:48:11.528Z,5.70
2022-08-26T19:53:11.012Z,6.00
2022-08-26T19:58:11.766Z,6.10
2022-08-26T20:03:11.768Z,5.90
2022-08-26T20:08:21.864Z,6.40
2022-08-26T20:13:22.175Z,5.90
2022-08-26T20:18:38.517Z,6.10
2022-08-26T20:23:37.476Z,6.60
2022-08-26T20:28:37.294Z,6.50
2022-08-26T20:33:46.022Z,6.20
2022-08-26T20:38:46.529Z,5.50
2022-08-26T20:43:46.295Z,6.50
2022-08-26T20:48:45.810Z,7.20
2022-08-26T20:53:45.397Z,6.20
2022-08-26T20:58:45.050Z,6.20
2022-08-26T21:03:43.890Z,6.10
2022-08-26T21:08:43.429Z,6.20
2022-08-26T21:14:03.748Z,6.60
2022-08-26T21:19:03.292Z,7.10
2022-08-26T21:24:03.103Z,6.50
2022-08-26T21:29:03.956Z,6.80
2022-08-26T21:34:02.517Z,7.20
2022-08-26T21:39:04.461Z,6.70
2022-08-26T21:44:05.955Z,6.40
2022-08-26T21:49:08.729Z,7.00
2022-08-26T21:54:11.264Z,6.60
2022-08-26T21:59:11.225Z,6.20
2022-08-26T22:04:12.457Z,6.30
2022-08-26T22:09:12.540Z,6.00
2022-08-26T22:14:11.884Z,6.20
2022-08-26T22:19:17.003Z,6.30
2022-08-26T22:24:16.879Z,5.40
2022-08-26T22:29:16.268Z,6.10
2022-08-26T22:34:19.793Z,6.60
2022-08-26T22:39:21.547Z,5.90
2022-08-26T22:44:23.013Z,6.10
2022-08-26T22:49:22.422Z,5.60
2022-08-26T22:54:22.192Z,5.50
2022-08-26T22:59:21.404Z,6.60
2022-08-26T23:04:20.678Z,6.30
2022-08-26T23:09:21.307Z,5.90
2022-08-26T23:14:22.220Z,6.40
2022-08-26T23:19:24.154Z,6.10
2022-08-26T23:24:22.750Z,5.80
2022-08-26T23:29:21.083Z,6.20
2022-08-26T23:34:37.631Z,6.00
2022-08-26T23:39:37.735Z,6.70
2022-08-26T23:44:36.896Z,6.60
2022-08-26T23:49:36.683Z,6.20
2022-08-26T23:54:37.098Z,6.60
2022-08-26T23:59:38.000Z,6.30
